Time;durP1;ratioP1;P1;durP2;ratioP2;P2;SDS_P1;SDS_P2;PMS_P1;PMS_P2;Temp;Humidity;BMP_temperature;BMP_pressure;BME280_temperature;BME280_humidity;BME280_pressure;Samples;Min_cycle;Max_cycle;Signal;HPM_P1;HPM_P2
2023/01/31 00:00:39;;;;;;;10.63;0.60;;;;;;;3.11;49.33;101930.03;4976718;28;20045;-76
2023/01/31 00:03:04;;;;;;;13.57;0.80;;;;;;;3.07;49.30;101924.00;4979578;28;20034;-77
2023/01/31 00:05:30;;;;;;;9.52;1.60;;;;;;;3.23;48.83;101927.56;4977720;28;20641;-75
2023/01/31 00:07:55;;;;;;;10.35;1.40;;;;;;;2.97;49.63;101928.19;4980299;28;20558;-77
2023/01/31 00:10:21;;;;;;;14.20;1.17;;;;;;;3.17;48.84;101927.50;4981814;28;20034;-76
2023/01/31 00:12:46;;;;;;;17.58;1.23;;;;;;;2.57;50.41;101912.34;4976699;28;20756;-76
2023/01/31 00:15:15;;;;;;;3.78;0.90;;;;;;;2.61;50.61;101908.09;4980365;28;20598;-76
2023/01/31 00:17:41;;;;;;;12.25;2.33;;;;;;;2.65;50.58;101912.44;4977264;28;20050;-76
2023/01/31 00:20:07;;;;;;;7.20;0.82;;;;;;;2.64;50.54;101918.41;4962989;28;20097;-76
2023/01/31 00:22:33;;;;;;;13.82;0.68;;;;;;;2.46;50.99;101910.50;4958723;28;20052;-74
2023/01/31 00:24:58;;;;;;;11.57;0.65;;;;;;;2.66;50.70;101919.31;4975857;28;20034;-76
2023/01/31 00:27:23;;;;;;;16.73;1.50;;;;;;;2.74;50.34;101922.84;4977100;28;20966;-75
2023/01/31 00:29:49;;;;;;;7.93;0.47;;;;;;;2.54;50.97;101914.91;4977698;28;20038;-77
2023/01/31 00:32:15;;;;;;;8.05;0.47;;;;;;;2.84;50.10;101915.19;4980822;28;20081;-74
2023/01/31 00:34:41;;;;;;;14.25;0.82;;;;;;;2.46;51.64;101919.09;4963952;28;20487;-77
2023/01/31 00:37:06;;;;;;;12.88;1.58;;;;;;;2.67;51.13;101918.47;4978376;28;20591;-75
2023/01/31 00:39:31;;;;;;;7.72;0.80;;;;;;;2.39;51.62;101914.72;4977177;28;20038;-76
2023/01/31 00:41:57;;;;;;;15.73;1.33;;;;;;;2.70;50.94;101923.66;4980210;28;20124;-77
2023/01/31 00:44:22;;;;;;;11.32;0.68;;;;;;;2.66;51.10;101919.31;4976765;28;20034;-76
2023/01/31 00:46:48;;;;;;;9.95;0.47;;;;;;;2.59;51.21;101925.25;4962830;28;20038;-76
2023/01/31 00:49:13;;;;;;;13.95;0.50;;;;;;;2.72;50.77;101919.38;4965052;28;20627;-76
2023/01/31 00:51:38;;;;;;;14.68;0.75;;;;;;;2.70;51.29;101913.31;4978528;28;20038;-76
2023/01/31 00:54:04;;;;;;;16.45;1.90;;;;;;;2.66;51.34;101911.56;4979982;28;20042;-76
2023/01/31 00:56:30;;;;;;;15.98;0.47;;;;;;;2.42;51.89;101895.84;4980162;28;20026;-75
2023/01/31 00:58:56;;;;;;;12.77;0.93;;;;;;;2.95;50.70;101898.06;4978666;28;20487;-76
2023/01/31 01:01:27;;;;;;;7.78;0.82;;;;;;;2.82;51.43;101907.41;4976612;28;20388;-77
2023/01/31 01:03:53;;;;;;;14.23;0.73;;;;;;;2.76;51.43;101904.78;4978859;28;20046;-77
2023/01/31 01:06:20;;;;;;;12.18;0.70;;;;;;;2.77;51.45;101903.91;4978473;28;20038;-76
2023/01/31 01:08:46;;;;;;;6.93;1.33;;;;;;;3.07;50.93;101892.09;4977995;28;20749;-76
2023/01/31 01:11:18;;;;;;;12.27;2.35;;;;;;;2.99;51.08;101899.81;4980706;28;20038;-76
2023/01/31 01:13:45;;;;;;;18.85;2.03;;;;;;;2.83;51.86;101892.81;4984175;28;20068;-77
2023/01/31 01:16:15;;;;;;;6.53;0.85;;;;;;;2.91;52.02;101898.88;4982436;28;20030;-77
2023/01/31 01:18:43;;;;;;;14.10;0.95;;;;;;;2.55;52.99;101897.69;4982903;28;20118;-76
2023/01/31 01:21:15;;;;;;;17.88;1.10;;;;;;;2.64;52.34;101887.44;4983722;28;20133;-75
2023/01/31 01:23:41;;;;;;;10.20;0.70;;;;;;;2.69;52.19;101883.22;4965500;28;20042;-76
2023/01/31 01:26:29;;;;;;;11.95;2.17;;;;;;;2.51;52.84;101890.75;4982792;28;20031;-76
2023/01/31 01:28:56;;;;;;;7.15;0.75;;;;;;;2.37;52.99;101887.19;4981362;28;20053;-77
2023/01/31 01:31:28;;;;;;;11.40;0.85;;;;;;;2.57;52.32;101880.50;4982340;28;20033;-74
2023/01/31 01:33:59;;;;;;;8.82;0.85;;;;;;;2.70;52.12;101878.91;4982017;28;20503;-76
2023/01/31 01:36:26;;;;;;;12.97;1.00;;;;;;;2.02;53.22;101892.81;4981847;28;20476;-77
2023/01/31 01:38:52;;;;;;;7.07;0.43;;;;;;;2.14;52.80;101885.22;4982677;28;20309;-76
2023/01/31 01:41:19;;;;;;;14.48;0.65;;;;;;;2.29;52.04;101887.13;4979191;28;20041;-77
2023/01/31 01:43:48;;;;;;;8.68;0.50;;;;;;;2.43;51.53;101877.78;4982223;28;20088;-76
2023/01/31 01:46:30;;;;;;;8.60;1.05;;;;;;;2.44;51.57;101894.13;4964430;28;20784;-75
2023/01/31 01:49:00;;;;;;;16.50;0.98;;;;;;;2.49;51.81;101893.34;4981996;28;20038;-75
2023/01/31 01:51:28;;;;;;;8.57;1.35;;;;;;;2.66;51.74;101890.91;4980138;28;20473;-77
2023/01/31 01:53:59;;;;;;;11.73;0.88;;;;;;;2.74;51.60;101891.00;4980876;28;20030;-76
2023/01/31 01:56:31;;;;;;;7.68;1.77;;;;;;;2.94;50.79;101888.59;4981581;28;20037;-75
2023/01/31 01:59:11;;;;;;;8.70;0.98;;;;;;;2.60;51.82;101893.47;4982218;28;20050;-75
2023/01/31 02:01:38;;;;;;;23.55;1.20;;;;;;;2.42;51.96;101903.56;4978375;28;20041;-76
2023/01/31 02:04:16;;;;;;;13.40;0.70;;;;;;;2.77;51.60;101903.91;4977930;28;20031;-75
2023/01/31 02:06:42;;;;;;;13.20;0.80;;;;;;;2.75;51.11;101903.03;4978400;28;20038;-76
2023/01/31 02:09:19;;;;;;;5.80;0.80;;;;;;;3.17;50.42;101901.66;4981377;28;20038;-76
2023/01/31 02:11:44;;;;;;;12.82;0.95;;;;;;;2.79;51.26;101902.22;4980001;28;20041;-76
2023/01/31 02:14:10;;;;;;;11.10;1.90;;;;;;;3.05;50.78;101905.03;4981888;28;20602;-75
2023/01/31 02:16:36;;;;;;;16.38;0.60;;;;;;;2.74;51.06;101903.91;4981139;28;20038;-75
2023/01/31 02:19:15;;;;;;;10.45;1.17;;;;;;;2.95;50.59;101914.41;4980876;28;20096;-75
2023/01/31 02:22:01;;;;;;;8.93;0.73;;;;;;;3.01;50.29;101913.59;4983678;28;20096;-76
2023/01/31 02:24:45;;;;;;;10.27;1.08;;;;;;;2.93;50.58;101899.75;4978288;28;20501;-76
2023/01/31 02:27:34;;;;;;;19.00;1.52;;;;;;;3.04;50.35;101886.94;4980316;28;20038;-75
2023/01/31 02:30:25;;;;;;;8.70;0.90;;;;;;;2.52;51.15;101882.19;4979865;28;20084;-75
2023/01/31 02:32:51;;;;;;;12.88;0.85;;;;;;;2.63;51.41;101880.56;4979754;28;20046;-75
2023/01/31 02:35:38;;;;;;;15.27;1.02;;;;;;;2.69;51.32;101883.22;4979899;28;20030;-76
2023/01/31 02:38:06;;;;;;;6.22;0.77;;;;;;;2.25;52.56;101873.31;4977773;28;20034;-75
2023/01/31 02:40:48;;;;;;;13.98;1.20;;;;;;;2.48;51.82;101860.63;4979712;28;20038;-77
2023/01/31 02:46:38;;;;;;;12.63;0.68;;;;;;;2.76;51.34;101872.09;4978461;28;20408;-76
2023/01/31 02:49:34;;;;;;;12.20;1.17;;;;;;;2.63;52.24;101872.81;4983929;28;20217;-76
2023/01/31 02:52:15;;;;;;;14.68;1.90;;;;;;;2.60;52.11;101857.31;4979764;28;20052;-76
2023/01/31 02:57:43;;;;;;;14.10;0.80;;;;;;;2.77;51.76;101853.16;4979202;28;20792;-76
2023/01/31 03:00:11;;;;;;;18.52;1.90;;;;;;;2.45;52.80;101852.00;4980316;28;20052;-76
2023/01/31 03:02:36;;;;;;;8.18;0.68;;;;;;;2.53;52.47;101852.94;4979724;28;20437;-77
2023/01/31 03:05:02;;;;;;;9.00;0.68;;;;;;;2.80;51.98;101856.59;4963519;28;20037;-75
2023/01/31 03:07:32;;;;;;;17.05;1.05;;;;;;;2.50;52.67;101847.75;4977105;28;20050;-76
2023/01/31 03:10:08;;;;;;;14.75;1.48;;;;;;;2.27;53.30;101845.81;4979677;28;20565;-76
2023/01/31 03:13:09;;;;;;;13.98;2.17;;;;;;;2.07;54.00;101847.31;4976347;28;20042;-75
2023/01/31 03:18:50;;;;;;;15.23;1.20;;;;;;;2.21;53.68;101839.72;4979206;28;20137;-75
2023/01/31 03:21:26;;;;;;;8.52;0.80;;;;;;;1.99;54.31;101838.63;4977865;28;20231;-76
2023/01/31 03:23:55;;;;;;;18.60;1.17;;;;;;;2.14;54.16;101820.75;4961926;28;20058;-76
2023/01/31 03:26:22;;;;;;;11.27;1.10;;;;;;;1.98;54.32;101817.16;4979710;28;20507;-75
2023/01/31 03:28:53;;;;;;;11.05;1.15;;;;;;;2.25;53.37;101823.44;4980716;28;20054;-76
2023/01/31 03:31:24;;;;;;;16.43;1.47;;;;;;;2.56;52.29;101828.03;4979294;28;20019;-77
2023/01/31 03:33:54;;;;;;;7.18;0.93;;;;;;;2.34;52.80;101826.09;4980272;28;20788;-76
2023/01/31 03:36:29;;;;;;;12.63;1.20;;;;;;;2.02;53.95;101829.22;4978589;28;20053;-76
2023/01/31 03:39:36;;;;;;;13.07;1.50;;;;;;;2.23;53.43;101826.00;4978948;28;20125;-76
2023/01/31 03:42:21;;;;;;;11.20;2.08;;;;;;;2.32;52.64;101833.81;4978547;28;20136;-76
2023/01/31 03:44:57;;;;;;;16.58;1.48;;;;;;;1.67;54.43;101823.66;4979150;28;20030;-76
2023/01/31 03:47:30;;;;;;;24.35;2.13;;;;;;;1.77;54.34;101838.38;4977062;28;20129;-75
2023/01/31 03:50:02;;;;;;;11.13;1.33;;;;;;;1.69;54.14;101832.28;4977992;28;20030;-75
2023/01/31 03:52:34;;;;;;;12.70;1.48;;;;;;;1.95;54.07;101822.25;4976283;28;20042;-76
2023/01/31 03:55:15;;;;;;;8.18;1.10;;;;;;;1.90;54.16;101834.22;4978317;28;20104;-75
2023/01/31 03:57:44;;;;;;;15.82;0.95;;;;;;;1.91;54.37;101820.50;4977289;28;20072;-76
2023/01/31 04:00:14;;;;;;;11.93;1.15;;;;;;;1.93;54.19;101822.25;4981649;28;20030;-76
2023/01/31 04:02:54;;;;;;;21.60;2.25;;;;;;;2.10;53.81;101821.56;4977485;28;20053;-76
2023/01/31 04:05:23;;;;;;;19.27;0.98;;;;;;;2.38;53.04;101816.66;4978634;28;20575;-76
2023/01/31 04:07:53;;;;;;;7.38;0.70;;;;;;;2.24;53.10;101812.25;4978656;28;20780;-76
2023/01/31 04:10:22;;;;;;;15.85;0.90;;;;;;;2.27;52.98;101804.53;4977656;28;20477;-76
2023/01/31 04:12:47;;;;;;;11.98;1.00;;;;;;;1.94;54.41;101811.06;4978174;28;20038;-76
2023/01/31 04:15:14;;;;;;;30.38;1.60;;;;;;;1.91;54.46;101816.22;4980037;28;20496;-76
2023/01/31 04:17:39;;;;;;;20.23;1.73;;;;;;;2.44;52.97;101816.72;4975787;28;20045;-76
2023/01/31 04:20:06;;;;;;;6.70;1.77;;;;;;;2.07;54.13;101811.22;4981009;28;20038;-78
2023/01/31 04:22:32;;;;;;;12.40;1.38;;;;;;;2.28;53.57;101801.09;4963214;28;20046;-75
2023/01/31 04:24:57;;;;;;;9.60;1.08;;;;;;;2.38;53.29;101807.22;4979040;28;20057;-76
2023/01/31 04:27:23;;;;;;;12.57;1.75;;;;;;;1.94;54.23;101808.50;4978308;28;20485;-76
2023/01/31 04:29:48;;;;;;;10.52;1.80;;;;;;;2.38;53.69;101796.03;4978850;28;20041;-76
2023/01/31 04:32:14;;;;;;;14.48;2.13;;;;;;;2.20;54.19;101802.75;4978369;28;20137;-75
2023/01/31 04:34:39;;;;;;;16.27;0.85;;;;;;;2.11;54.36;101802.69;4978230;28;20041;-75
2023/01/31 04:37:05;;;;;;;8.02;0.47;;;;;;;2.06;54.25;101794.00;4978379;28;20038;-75
2023/01/31 04:39:30;;;;;;;7.18;1.08;;;;;;;2.54;53.19;101791.00;4975748;28;20077;-76
2023/01/31 04:41:56;;;;;;;15.52;1.83;;;;;;;2.22;54.09;101790.75;4978390;28;20117;-76
2023/01/31 04:44:21;;;;;;;14.27;1.23;;;;;;;2.34;53.84;101785.69;4978456;28;20117;-76
2023/01/31 04:46:47;;;;;;;5.07;0.77;;;;;;;2.44;53.63;101771.13;4981119;28;20125;-76
2023/01/31 04:49:14;;;;;;;13.82;1.42;;;;;;;2.51;53.94;101782.38;4983046;28;20085;-75
2023/01/31 04:51:40;;;;;;;15.15;1.23;;;;;;;1.93;55.31;101782.72;4981332;28;20034;-75
2023/01/31 04:54:05;;;;;;;14.52;1.45;;;;;;;1.58;56.49;101779.75;4982456;28;20041;-76
2023/01/31 04:56:31;;;;;;;15.20;0.93;;;;;;;2.03;55.45;101765.63;4982674;28;20846;-76
2023/01/31 04:58:57;;;;;;;12.60;3.17;;;;;;;2.14;55.61;101770.03;4980693;28;20041;-76
2023/01/31 05:01:23;;;;;;;14.70;1.35;;;;;;;1.97;55.56;101768.13;4981732;28;20069;-76
2023/01/31 05:03:49;;;;;;;9.85;0.90;;;;;;;1.64;56.20;101777.22;4980647;28;20056;-74
2023/01/31 05:06:15;;;;;;;13.02;1.00;;;;;;;1.37;56.85;101776.00;4982797;28;20030;-76
2023/01/31 05:08:40;;;;;;;14.55;1.85;;;;;;;1.82;55.66;101777.44;4980770;28;20697;-75
2023/01/31 05:11:06;;;;;;;18.00;1.40;;;;;;;1.46;56.42;101775.28;4983424;28;20037;-75
2023/01/31 05:13:36;;;;;;;9.85;0.93;;;;;;;1.93;55.51;101762.94;4980588;28;20808;-75
2023/01/31 05:16:07;;;;;;;12.73;1.15;;;;;;;1.60;56.34;101750.56;4983184;28;20030;-75
2023/01/31 05:18:37;;;;;;;14.95;1.45;;;;;;;1.32;57.66;101772.50;4979757;28;20492;-76
2023/01/31 05:21:03;;;;;;;14.38;1.38;;;;;;;1.61;56.73;101751.41;4981016;28;20046;-76
2023/01/31 05:23:29;;;;;;;7.43;0.93;;;;;;;1.96;55.59;101756.97;4981718;28;20046;-76
2023/01/31 05:25:55;;;;;;;9.20;1.27;;;;;;;1.82;56.46;101750.78;4984426;28;20042;-76
2023/01/31 05:28:20;;;;;;;12.60;0.90;;;;;;;1.90;56.34;101736.25;4978611;28;20074;-75
2023/01/31 05:30:46;;;;;;;9.52;1.00;;;;;;;2.09;56.13;101734.75;4981462;28;20034;-76
2023/01/31 05:33:12;;;;;;;17.70;1.92;;;;;;;1.53;57.59;101728.16;4980203;28;20046;-76
2023/01/31 05:35:38;;;;;;;12.43;1.92;;;;;;;1.66;57.33;101716.25;4980870;28;20795;-76
2023/01/31 05:38:04;;;;;;;12.07;2.10;;;;;;;1.85;57.25;101723.34;4981161;28;20081;-76
2023/01/31 05:40:30;;;;;;;13.38;1.20;;;;;;;1.92;57.48;101719.09;4980661;28;20445;-76
2023/01/31 05:42:56;;;;;;;11.88;1.27;;;;;;;2.03;56.07;101716.63;4981031;28;20038;-76
2023/01/31 05:45:22;;;;;;;15.98;1.50;;;;;;;2.20;56.35;101722.81;4981057;28;20041;-76
2023/01/31 05:47:48;;;;;;;12.05;1.15;;;;;;;2.29;56.22;101714.28;4978928;28;20050;-75
2023/01/31 05:50:14;;;;;;;7.80;1.55;;;;;;;2.20;56.92;101714.19;4982695;28;20026;-76
2023/01/31 05:52:39;;;;;;;12.93;1.48;;;;;;;2.31;56.75;101705.69;4979740;28;20046;-76
2023/01/31 05:55:05;;;;;;;13.20;1.23;;;;;;;2.19;57.15;101700.41;4983457;28;20026;-76
2023/01/31 05:57:31;;;;;;;12.65;1.73;;;;;;;2.03;57.11;101685.69;4978672;28;20121;-76
2023/01/31 05:59:57;;;;;;;15.90;1.55;;;;;;;2.18;56.92;101687.53;4979707;28;20053;-76
2023/01/31 06:02:22;;;;;;;17.23;1.90;;;;;;;1.87;58.21;101675.22;4979653;28;20042;-75
2023/01/31 06:04:48;;;;;;;24.48;3.22;;;;;;;1.88;57.96;101669.22;4979683;28;20065;-76
2023/01/31 06:07:14;;;;;;;9.45;1.45;;;;;;;1.24;60.15;101677.13;4981079;28;20718;-78
2023/01/31 06:09:40;;;;;;;21.20;1.40;;;;;;;2.25;57.22;101661.78;4981064;28;20045;-77
2023/01/31 06:12:13;;;;;;;10.70;1.38;;;;;;;2.34;57.25;101661.84;4983276;28;20049;-79
2023/01/31 06:14:39;;;;;;;8.75;1.52;;;;;;;1.82;58.83;101661.44;4980684;28;20563;-77
2023/01/31 06:17:05;;;;;;;8.88;2.03;;;;;;;2.07;57.86;101661.66;4982616;28;20049;-78
2023/01/31 06:19:31;;;;;;;12.60;2.17;;;;;;;1.74;58.89;101652.78;4980216;28;20030;-78
2023/01/31 06:21:57;;;;;;;12.52;1.50;;;;;;;2.42;57.12;101632.66;4982128;28;20030;-78
2023/01/31 06:24:22;;;;;;;12.20;1.83;;;;;;;2.26;57.56;101642.88;4980713;28;20121;-78
2023/01/31 06:26:48;;;;;;;14.07;2.20;;;;;;;2.53;56.77;101636.16;4978997;28;20049;-78
2023/01/31 06:29:14;;;;;;;12.68;2.72;;;;;;;2.13;58.71;101636.78;4981257;28;20034;-79
2023/01/31 06:31:44;;;;;;;10.13;2.08;;;;;;;2.19;58.08;101628.19;4980527;28;20041;-77
2023/01/31 06:34:11;;;;;;;22.60;4.28;;;;;;;2.06;59.10;101631.53;4980540;28;20104;-78
2023/01/31 06:36:37;;;;;;;25.13;2.55;;;;;;;1.68;59.73;101616.63;4978310;28;20702;-77
2023/01/31 06:39:03;;;;;;;13.70;1.88;;;;;;;2.27;57.96;101618.81;4980546;28;20447;-78
2023/01/31 06:41:29;;;;;;;19.38;3.92;;;;;;;1.81;59.61;101618.47;4980663;28;20053;-77
2023/01/31 06:43:55;;;;;;;16.95;2.45;;;;;;;2.77;56.76;101607.03;4981122;28;20046;-78
2023/01/31 06:46:21;;;;;;;10.95;2.17;;;;;;;2.50;57.64;101600.03;4978148;28;20034;-78
2023/01/31 06:48:50;;;;;;;16.58;2.33;;;;;;;2.26;58.47;101595.56;4981251;28;20732;-78
2023/01/31 06:51:16;;;;;;;25.45;2.67;;;;;;;2.12;59.11;101592.91;4977949;28;20033;-77
2023/01/31 06:53:42;;;;;;;21.63;2.35;;;;;;;2.60;57.80;101586.31;4978710;28;20053;-77
2023/01/31 06:56:09;;;;;;;13.73;2.88;;;;;;;2.53;58.08;101584.53;4958544;28;20034;-78
2023/01/31 06:58:34;;;;;;;20.75;2.28;;;;;;;2.25;58.44;101588.69;4977603;28;20076;-77
2023/01/31 07:01:12;;;;;;;23.70;3.05;;;;;;;2.82;56.90;101581.22;4980069;28;20065;-78
2023/01/31 07:03:38;;;;;;;9.15;1.63;;;;;;;2.30;58.67;101576.69;4979196;28;20937;-78
2023/01/31 07:06:05;;;;;;;15.57;2.42;;;;;;;2.59;58.04;101583.72;4980312;28;20136;-79
2023/01/31 07:08:31;;;;;;;23.23;3.28;;;;;;;1.89;59.57;101580.72;4979821;28;20039;-77
2023/01/31 07:11:00;;;;;;;26.05;3.25;;;;;;;2.76;57.96;101572.59;4981572;28;20333;-77
2023/01/31 07:13:27;;;;;;;19.08;2.70;;;;;;;2.05;59.93;101567.94;4961648;28;20038;-77
2023/01/31 07:15:53;;;;;;;8.43;1.95;;;;;;;2.69;57.85;101559.66;4980336;28;20470;-77
2023/01/31 07:18:19;;;;;;;12.88;1.83;;;;;;;2.24;59.03;101550.84;4978372;28;20531;-77
2023/01/31 07:20:45;;;;;;;13.77;2.45;;;;;;;2.86;57.07;101531.31;4980715;28;20022;-77
2023/01/31 07:23:10;;;;;;;14.10;1.88;;;;;;;2.13;59.06;101535.31;4979143;28;20049;-78
2023/01/31 07:25:36;;;;;;;14.18;1.98;;;;;;;2.44;58.61;101523.44;4978251;28;20449;-78
2023/01/31 07:28:02;;;;;;;11.10;2.10;;;;;;;2.66;58.17;101514.03;4978960;28;20060;-78
2023/01/31 07:30:28;;;;;;;17.23;2.70;;;;;;;2.75;57.39;101526.13;4979362;28;20033;-78
2023/01/31 07:32:54;;;;;;;17.40;1.83;;;;;;;2.08;59.24;101519.81;4977917;28;20072;-77
2023/01/31 07:35:20;;;;;;;9.30;1.27;;;;;;;2.72;57.60;101498.59;4978107;28;20042;-78
2023/01/31 07:37:46;;;;;;;14.85;1.73;;;;;;;2.24;58.85;101502.72;4978151;28;20042;-77
2023/01/31 07:40:14;;;;;;;21.45;2.65;;;;;;;1.84;60.15;101494.78;4980738;28;20041;-78
2023/01/31 07:42:40;;;;;;;8.70;2.22;;;;;;;2.16;59.73;101501.81;4977583;28;20055;-77
2023/01/31 07:45:09;;;;;;;13.02;1.65;;;;;;;2.72;57.98;101498.59;4981612;28;20030;-78
2023/01/31 07:47:35;;;;;;;7.60;1.88;;;;;;;2.84;57.29;101507.22;4978416;28;21108;-78
2023/01/31 07:50:00;;;;;;;14.90;2.58;;;;;;;2.61;57.80;101510.59;4979621;28;20026;-77
2023/01/31 07:52:26;;;;;;;16.83;2.63;;;;;;;2.60;58.11;101496.00;4978136;28;20034;-78
2023/01/31 07:54:52;;;;;;;11.60;2.55;;;;;;;2.53;58.05;101494.22;4979235;28;20048;-77
2023/01/31 07:57:17;;;;;;;17.73;3.05;;;;;;;2.86;57.00;101500.34;4959705;28;20089;-77
2023/01/31 07:59:43;;;;;;;17.90;4.22;;;;;;;2.73;57.39;101495.16;4962926;28;20046;-78
2023/01/31 08:04:55;;;;;;;16.35;1.95;;;;;;;3.11;56.23;101496.97;4977056;28;20039;-76
2023/01/31 08:07:21;;;;;;;18.95;2.28;;;;;;;2.20;59.63;101490.66;4976590;28;20042;-76
2023/01/31 08:09:48;;;;;;;14.45;2.03;;;;;;;2.87;58.17;101486.59;4978897;28;20481;-76
2023/01/31 08:12:14;;;;;;;13.90;2.35;;;;;;;2.13;60.51;101486.31;4980476;28;20046;-76
2023/01/31 08:14:39;;;;;;;23.40;2.95;;;;;;;2.29;60.14;101480.38;4977374;28;20042;-75
2023/01/31 08:17:07;;;;;;;13.65;2.17;;;;;;;2.70;59.00;101483.97;4981286;28;20057;-77
2023/01/31 08:19:33;;;;;;;24.13;2.90;;;;;;;2.45;59.45;101483.03;4960635;28;20040;-75
2023/01/31 08:21:59;;;;;;;14.05;2.58;;;;;;;2.55;59.41;101484.75;4984726;28;20516;-79
2023/01/31 08:24:25;;;;;;;16.27;3.80;;;;;;;2.19;60.11;101470.88;4988350;28;20030;-78
2023/01/31 08:26:50;;;;;;;24.52;1.90;;;;;;;2.71;58.69;101458.16;4988859;28;20037;-77
2023/01/31 08:29:16;;;;;;;18.02;3.53;;;;;;;2.57;58.80;101457.25;4985961;28;20311;-77
2023/01/31 08:31:42;;;;;;;20.88;3.40;;;;;;;1.93;61.19;101453.56;4988053;28;20034;-79
2023/01/31 08:34:09;;;;;;;20.58;2.55;;;;;;;3.15;57.95;101456.47;4983686;28;20074;-76
2023/01/31 08:36:35;;;;;;;19.13;3.22;;;;;;;2.37;60.11;101458.91;4983720;28;20995;-77
2023/01/31 08:39:01;;;;;;;16.38;2.33;;;;;;;2.06;60.96;101443.31;4988260;28;20093;-77
2023/01/31 08:41:28;;;;;;;21.95;2.20;;;;;;;2.59;59.64;101452.09;4985783;28;20033;-76
2023/01/31 08:43:56;;;;;;;11.02;2.50;;;;;;;2.81;58.70;101447.84;4985672;28;20046;-77
2023/01/31 08:46:24;;;;;;;8.52;1.60;;;;;;;2.61;59.13;101448.66;4984506;28;20570;-77
2023/01/31 08:48:49;;;;;;;9.48;1.77;;;;;;;3.00;58.15;101428.06;4984494;28;20042;-76
2023/01/31 08:51:15;;;;;;;9.63;1.55;;;;;;;2.59;59.55;101431.44;4987057;28;20040;-74
2023/01/31 08:53:45;;;;;;;12.40;2.15;;;;;;;2.45;59.93;101436.59;4979624;28;20046;-76
2023/01/31 08:56:12;;;;;;;13.90;1.67;;;;;;;2.25;60.24;101429.63;4983887;28;20030;-76
2023/01/31 08:58:40;;;;;;;21.08;3.33;;;;;;;2.78;58.50;101435.81;4979378;28;20397;-76
2023/01/31 09:01:12;;;;;;;11.05;1.85;;;;;;;1.89;61.54;101446.66;4982605;28;20472;-75
2023/01/31 09:03:38;;;;;;;14.73;1.92;;;;;;;2.27;60.68;101433.09;4979212;28;20046;-75
2023/01/31 09:06:07;;;;;;;16.13;2.25;;;;;;;2.10;61.02;101425.28;4981283;28;20046;-76
2023/01/31 09:08:33;;;;;;;22.45;2.05;;;;;;;3.30;57.78;101422.06;4978621;28;20160;-75
2023/01/31 09:10:59;;;;;;;12.13;1.75;;;;;;;2.80;59.32;101410.84;4977942;28;20057;-75
2023/01/31 09:13:26;;;;;;;9.05;1.20;;;;;;;2.82;58.89;101413.41;4975739;28;20133;-75
2023/01/31 09:16:07;;;;;;;21.45;2.20;;;;;;;3.42;57.31;101408.25;4980876;28;20050;-76
2023/01/31 09:18:34;;;;;;;17.45;1.77;;;;;;;3.28;57.76;101400.50;4977172;28;20057;-75
2023/01/31 09:21:11;;;;;;;11.48;2.67;;;;;;;3.12;58.27;101395.34;4980909;28;20031;-76
2023/01/31 09:23:37;;;;;;;16.73;2.28;;;;;;;3.07;58.36;101403.94;4976163;28;20039;-75
2023/01/31 09:26:04;;;;;;;19.23;4.35;;;;;;;3.07;58.58;101384.16;4980550;28;20113;-75
2023/01/31 09:28:30;;;;;;;13.23;3.55;;;;;;;2.90;59.24;101389.31;4976751;28;20118;-75
2023/01/31 09:31:05;;;;;;;17.38;3.88;;;;;;;3.07;58.32;101366.09;4981194;28;20066;-75
2023/01/31 09:33:32;;;;;;;18.30;2.85;;;;;;;2.96;58.42;101358.34;4976464;28;20030;-75
2023/01/31 09:36:06;;;;;;;15.10;2.33;;;;;;;3.15;58.26;101366.91;4980287;28;20440;-75
2023/01/31 09:38:33;;;;;;;11.05;1.55;;;;;;;2.97;59.08;101369.53;4978519;28;20389;-76
2023/01/31 09:41:02;;;;;;;8.98;2.33;;;;;;;3.32;58.26;101366.09;4962464;28;20030;-76
2023/01/31 09:43:39;;;;;;;8.10;1.35;;;;;;;2.80;59.46;101369.53;4979637;28;20483;-75
2023/01/31 09:46:12;;;;;;;10.38;1.65;;;;;;;3.12;58.48;101364.34;4981711;28;20065;-74
2023/01/31 09:48:41;;;;;;;14.07;1.33;;;;;;;3.48;57.87;101372.06;4985209;28;20466;-76
2023/01/31 09:51:11;;;;;;;6.85;0.98;;;;;;;2.79;59.86;101364.38;4964778;28;20026;-76
2023/01/31 09:53:40;;;;;;;12.40;1.52;;;;;;;3.32;58.19;101371.25;4977087;28;20065;-76
2023/01/31 09:56:08;;;;;;;17.08;1.63;;;;;;;3.19;59.05;101357.44;4981800;28;20034;-76
2023/01/31 09:58:56;;;;;;;14.50;4.03;;;;;;;3.65;57.72;101359.97;4976441;28;20050;-80
2023/01/31 10:01:42;;;;;;;12.95;2.10;;;;;;;3.19;59.21;101366.06;4979343;28;20070;-76
2023/01/31 10:04:28;;;;;;;18.55;5.25;;;;;;;3.68;58.33;101359.09;4977836;28;20097;-76
2023/01/31 10:07:17;;;;;;;12.10;3.28;;;;;;;3.80;57.70;101361.63;4960980;28;20053;-76
2023/01/31 10:09:48;;;;;;;13.52;2.63;;;;;;;3.61;58.42;101363.44;4978328;28;20034;-75
2023/01/31 10:12:23;;;;;;;18.10;3.10;;;;;;;3.12;59.54;101371.25;4979484;28;20642;-76
2023/01/31 10:15:01;;;;;;;18.25;4.82;;;;;;;3.43;59.07;101363.47;4978445;28;20046;-76
2023/01/31 10:17:48;;;;;;;6.78;2.25;;;;;;;3.78;58.00;101363.34;4977328;28;20580;-75
2023/01/31 10:20:20;;;;;;;12.38;1.98;;;;;;;3.42;59.32;101362.59;4980045;28;20512;-76
2023/01/31 10:23:03;;;;;;;9.00;1.58;;;;;;;3.17;60.43;101352.28;4979115;28;20669;-75
2023/01/31 10:25:31;;;;;;;;;;;;;;;3.37;60.48;101364.34;4979191;28;20171;-76
2023/01/31 10:28:19;;;;;;;13.35;2.78;;;;;;;3.04;62.05;101366.06;4959218;28;20042;-75
2023/01/31 10:30:55;;;;;;;4.75;1.45;;;;;;;2.93;62.43;101357.47;4978900;28;20408;-75
2023/01/31 10:33:30;;;;;;;13.77;2.25;;;;;;;3.37;61.51;101364.34;4981698;28;20193;-76
2023/01/31 10:35:59;;;;;;;9.63;1.25;;;;;;;2.93;62.77;101360.06;4959409;28;20030;-74
2023/01/31 10:38:34;;;;;;;13.40;1.65;;;;;;;3.04;62.36;101362.63;4977001;28;20042;-76
2023/01/31 10:41:16;;;;;;;10.32;1.63;;;;;;;2.95;62.79;101351.44;4977707;28;20587;-76
2023/01/31 10:43:58;;;;;;;14.13;1.27;;;;;;;3.01;62.59;101366.09;4977220;28;20042;-75
2023/01/31 10:46:23;;;;;;;16.95;1.42;;;;;;;3.34;61.53;101369.53;4977140;28;20035;-75
2023/01/31 10:48:49;;;;;;;10.00;1.10;;;;;;;2.84;62.89;101367.81;4977457;28;20038;-76
2023/01/31 10:51:43;;;;;;;10.30;1.67;;;;;;;3.35;61.62;101378.97;4976412;28;20073;-75
2023/01/31 10:54:27;;;;;;;18.60;1.83;;;;;;;2.96;62.62;101373.84;4977714;28;20100;-76
2023/01/31 10:56:52;;;;;;;14.60;2.03;;;;;;;2.77;62.89;101357.47;4974978;28;20042;-76
2023/01/31 10:59:30;;;;;;;16.73;4.05;;;;;;;3.13;62.01;101360.03;4975137;28;20033;-75
2023/01/31 11:01:57;;;;;;;28.27;3.35;;;;;;;3.13;62.11;101350.56;4976319;28;20066;-75
2023/01/31 11:04:35;;;;;;;9.50;2.85;;;;;;;2.95;62.05;101350.59;4974793;28;20476;-75
2023/01/31 11:07:01;;;;;;;19.02;5.32;;;;;;;3.01;62.63;101339.41;4978517;28;20125;-76
2023/01/31 11:09:31;;;;;;;24.38;3.63;;;;;;;2.95;61.81;101341.09;4976335;28;20026;-76
2023/01/31 11:12:00;;;;;;;24.58;4.20;;;;;;;3.12;62.05;101341.09;4976902;28;20034;-76
2023/01/31 11:14:26;;;;;;;11.95;2.28;;;;;;;3.37;61.56;101341.09;4975608;28;20092;-76
2023/01/31 11:17:20;;;;;;;25.90;5.25;;;;;;;3.31;61.32;101341.09;4975539;28;20097;-76
2023/01/31 11:19:54;;;;;;;13.70;2.78;;;;;;;3.46;61.24;101330.72;4969711;28;20998;-76
2023/01/31 11:22:31;;;;;;;15.27;3.75;;;;;;;3.92;59.83;101333.13;4975131;28;20057;-76
2023/01/31 11:25:00;;;;;;;15.55;2.67;;;;;;;3.75;59.97;101332.34;4976368;28;20566;-76
2023/01/31 11:27:42;;;;;;;14.15;2.78;;;;;;;4.21;58.45;101330.38;4977050;28;20060;-76
2023/01/31 11:30:26;;;;;;;15.38;3.17;;;;;;;3.96;59.42;101332.25;4978980;28;20045;-77
2023/01/31 11:32:51;;;;;;;14.68;2.92;;;;;;;3.61;60.35;101327.22;4975757;28;20508;-75
2023/01/31 11:35:17;;;;;;;14.70;3.65;;;;;;;3.77;60.16;101322.84;4976191;28;20065;-75
2023/01/31 11:37:58;;;;;;;58.47;19.02;;;;;;;3.52;60.99;101322.94;4977139;28;20500;-75
2023/01/31 11:40:30;;;;;;;65.97;22.13;;;;;;;3.93;59.47;101324.50;4975656;28;20064;-76
2023/01/31 11:42:58;;;;;;;30.08;9.05;;;;;;;3.56;60.67;101308.28;4974104;28;20126;-75
2023/01/31 11:45:41;;;;;;;17.67;4.20;;;;;;;3.78;60.45;101325.44;4977016;28;20030;-76
2023/01/31 11:48:21;;;;;;;23.67;5.85;;;;;;;3.27;61.50;101295.41;4978167;28;20038;-75
2023/01/31 11:50:58;;;;;;;16.88;2.17;;;;;;;3.28;61.98;101302.31;4976482;28;20057;-76